createdAt,value
2022-10-15T00:01:59.230Z,70.52
2022-10-15T00:04:31.603Z,70.89
2022-10-15T00:07:03.299Z,70.73
2022-10-15T00:09:35.051Z,70.95
2022-10-15T00:12:06.888Z,71.00
2022-10-15T00:14:38.626Z,70.72
2022-10-15T00:17:10.466Z,70.39
2022-10-15T00:19:42.336Z,70.58
2022-10-15T00:22:14.187Z,71.02
2022-10-15T00:24:46.219Z,70.62
2022-10-15T00:27:18.069Z,70.83
2022-10-15T00:29:49.740Z,70.64
2022-10-15T00:32:23.996Z,70.50
2022-10-15T00:34:58.691Z,70.60
2022-10-15T00:37:30.730Z,70.81
2022-10-15T00:42:39.107Z,71.16
2022-10-15T00:45:14.246Z,71.20
2022-10-15T00:47:52.870Z,71.25
2022-10-15T00:50:27.566Z,71.49
2022-10-15T00:53:07.897Z,71.25
2022-10-15T00:55:44.211Z,71.34
2022-10-15T00:58:22.521Z,71.22
2022-10-15T01:00:56.437Z,71.06
2022-10-15T01:03:28.639Z,70.78
2022-10-15T01:06:01.325Z,71.11
2022-10-15T01:08:37.306Z,70.78
2022-10-15T01:11:36.314Z,70.83
2022-10-15T01:14:20.171Z,70.73
2022-10-15T01:16:59.944Z,70.98
2022-10-15T01:19:48.834Z,70.87
2022-10-15T01:22:48.026Z,70.96
2022-10-15T01:25:56.820Z,70.81
2022-10-15T01:28:47.390Z,70.92
2022-10-15T01:31:34.261Z,71.28
2022-10-15T01:36:58.120Z,71.22
2022-10-15T01:39:34.957Z,71.53
2022-10-15T01:42:30.752Z,71.24
2022-10-15T01:45:08.730Z,71.05
2022-10-15T01:47:56.686Z,71.53
2022-10-15T01:50:32.540Z,71.16
2022-10-15T01:53:08.161Z,71.39
2022-10-15T01:55:45.324Z,71.20
2022-10-15T01:58:18.402Z,71.13
2022-10-15T02:00:54.633Z,71.23
2022-10-15T02:03:26.641Z,71.24
2022-10-15T02:06:06.486Z,71.29
2022-10-15T02:09:13.257Z,71.33
2022-10-15T02:11:59.328Z,71.27
2022-10-15T02:14:43.908Z,71.65
2022-10-15T02:17:18.643Z,71.53
2022-10-15T02:22:38.623Z,71.30
2022-10-15T02:25:18.895Z,71.82
2022-10-15T02:27:56.670Z,71.71
2022-10-15T02:30:30.534Z,71.79
2022-10-15T02:33:02.396Z,71.76
2022-10-15T02:35:35.640Z,71.79
2022-10-15T02:38:15.898Z,72.99
2022-10-15T02:40:49.658Z,72.47
2022-10-15T02:43:24.475Z,72.37
2022-10-15T02:45:56.514Z,73.02
2022-10-15T02:48:28.301Z,73.08
2022-10-15T02:50:59.935Z,73.50
2022-10-15T02:53:31.725Z,73.25
2022-10-15T02:56:03.670Z,73.78
2022-10-15T02:58:35.531Z,73.72
2022-10-15T03:01:07.561Z,74.29
2022-10-15T03:03:40.073Z,73.66
2022-10-15T03:06:11.843Z,74.16
2022-10-15T03:08:44.469Z,74.22
2022-10-15T03:11:16.738Z,74.20
2022-10-15T03:13:48.494Z,73.74
2022-10-15T03:16:20.523Z,74.18
2022-10-15T03:18:52.650Z,74.03
2022-10-15T03:21:24.529Z,74.49
2022-10-15T03:24:00.658Z,74.17
2022-10-15T03:26:32.408Z,75.06
2022-10-15T03:29:04.215Z,74.66
2022-10-15T03:31:54.925Z,74.51
2022-10-15T03:34:26.901Z,74.50
2022-10-15T03:36:58.701Z,74.84
2022-10-15T03:39:30.543Z,74.75
2022-10-15T03:42:06.686Z,74.77
2022-10-15T03:44:51.473Z,75.03
2022-10-15T03:47:24.675Z,75.30
2022-10-15T03:49:56.491Z,74.80
2022-10-15T03:52:29.157Z,75.17
2022-10-15T03:55:04.221Z,75.44
2022-10-15T03:57:39.431Z,75.51
2022-10-15T04:00:13.739Z,75.77
2022-10-15T04:02:45.356Z,75.37
2022-10-15T04:05:28.913Z,75.98
2022-10-15T04:08:07.290Z,75.74
2022-10-15T04:10:43.751Z,75.88
2022-10-15T04:13:15.605Z,75.88
2022-10-15T04:15:48.128Z,76.37
2022-10-15T04:18:23.234Z,76.08
2022-10-15T04:20:59.912Z,76.29
2022-10-15T04:23:31.584Z,76.74
2022-10-15T04:26:26.870Z,76.87
2022-10-15T04:28:58.718Z,76.57
2022-10-15T04:31:35.346Z,76.95
2022-10-15T04:34:07.617Z,77.18
2022-10-15T04:36:41.751Z,76.98
2022-10-15T04:39:24.660Z,77.15
2022-10-15T04:41:56.392Z,77.57
2022-10-15T04:44:34.184Z,77.43
2022-10-15T04:47:07.414Z,77.54
2022-10-15T04:49:46.294Z,77.28
2022-10-15T04:52:53.151Z,77.78
2022-10-15T04:55:24.857Z,77.41
2022-10-15T04:58:01.880Z,77.59
2022-10-15T05:00:35.147Z,78.06
2022-10-15T05:03:36.445Z,77.99
2022-10-15T05:06:16.589Z,77.90
2022-10-15T05:08:49.951Z,78.14
2022-10-15T05:11:28.044Z,78.62
2022-10-15T05:14:02.226Z,78.69
2022-10-15T05:16:36.631Z,78.73
2022-10-15T05:19:08.895Z,79.26
2022-10-15T05:21:46.650Z,79.04
2022-10-15T05:24:31.844Z,79.29
2022-10-15T05:27:16.388Z,79.38
2022-10-15T05:29:48.523Z,79.46
2022-10-15T05:34:56.708Z,80.18
2022-10-15T05:37:37.450Z,80.24
2022-10-15T05:40:09.739Z,79.76
2022-10-15T05:42:41.884Z,80.13
2022-10-15T05:45:13.907Z,80.05
2022-10-15T05:47:46.535Z,80.16
2022-10-15T05:50:26.667Z,79.84
2022-10-15T05:53:01.630Z,80.71
2022-10-15T05:55:39.470Z,80.78
2022-10-15T05:58:11.524Z,81.17
2022-10-15T06:00:46.281Z,81.21
2022-10-15T06:03:19.341Z,81.31
2022-10-15T06:05:51.330Z,81.34
2022-10-15T06:08:24.213Z,81.25
2022-10-15T06:11:05.292Z,80.93
2022-10-15T06:13:44.864Z,81.14
2022-10-15T06:16:21.142Z,81.13
2022-10-15T06:18:55.590Z,81.00
2022-10-15T06:21:27.544Z,80.98
2022-10-15T06:24:03.169Z,81.63
2022-10-15T06:26:37.280Z,81.34
2022-10-15T06:29:10.029Z,81.37
2022-10-15T06:31:41.812Z,81.51
2022-10-15T06:34:13.688Z,81.33
2022-10-15T06:36:45.867Z,81.51
2022-10-15T06:39:17.984Z,81.65
2022-10-15T06:41:49.679Z,82.18
2022-10-15T06:44:23.075Z,82.37
2022-10-15T06:46:55.419Z,81.89
2022-10-15T06:49:27.286Z,81.89
2022-10-15T06:52:02.699Z,82.26
2022-10-15T06:54:38.165Z,82.11
2022-10-15T06:57:10.710Z,82.25
2022-10-15T06:59:42.655Z,82.01
2022-10-15T07:02:19.381Z,82.28
2022-10-15T07:04:51.283Z,82.50
2022-10-15T07:07:26.390Z,82.34
2022-10-15T07:09:58.191Z,82.18
2022-10-15T07:12:29.978Z,82.11
2022-10-15T07:15:01.717Z,82.72
2022-10-15T07:17:35.247Z,82.72
2022-10-15T07:20:07.789Z,82.86
2022-10-15T07:22:39.745Z,82.40
2022-10-15T07:25:11.840Z,82.50
2022-10-15T07:27:43.523Z,83.31
2022-10-15T07:30:15.262Z,82.86
2022-10-15T07:32:50.295Z,82.76
2022-10-15T07:35:22.107Z,83.21
2022-10-15T07:37:54.625Z,82.96
2022-10-15T07:40:26.365Z,82.87
2022-10-15T07:42:59.500Z,82.99
2022-10-15T07:45:36.144Z,83.49
2022-10-15T07:48:10.421Z,82.99
2022-10-15T07:50:42.433Z,83.60
2022-10-15T07:53:15.359Z,83.34
2022-10-15T07:55:48.626Z,83.18
2022-10-15T07:58:20.551Z,83.11
2022-10-15T08:00:53.299Z,83.15
2022-10-15T08:03:28.177Z,83.08
2022-10-15T08:06:01.174Z,83.18
2022-10-15T08:08:34.317Z,83.26
2022-10-15T08:11:15.581Z,83.54
2022-10-15T08:13:53.062Z,83.43
2022-10-15T08:16:24.749Z,83.61
2022-10-15T08:19:05.938Z,83.38
2022-10-15T08:21:37.617Z,83.13
2022-10-15T08:24:09.326Z,83.39
2022-10-15T08:26:44.190Z,83.34
2022-10-15T08:29:24.041Z,83.07
2022-10-15T08:31:56.010Z,83.44
2022-10-15T08:34:28.524Z,83.37
2022-10-15T08:37:00.250Z,83.41
2022-10-15T08:39:32.020Z,82.72
2022-10-15T08:42:12.253Z,83.59
2022-10-15T08:45:06.859Z,83.00
2022-10-15T08:47:51.333Z,82.57
2022-10-15T08:50:53.221Z,82.57
2022-10-15T08:53:31.103Z,82.59
2022-10-15T08:56:38.105Z,82.76
2022-10-15T08:59:28.600Z,82.33
2022-10-15T09:02:26.836Z,81.76
2022-10-15T09:05:03.525Z,81.43
2022-10-15T09:08:15.111Z,81.46
2022-10-15T09:10:53.192Z,81.15
2022-10-15T09:13:40.344Z,81.59
2022-10-15T09:16:43.064Z,81.04
2022-10-15T09:19:23.967Z,81.39
2022-10-15T09:21:56.159Z,80.77
2022-10-15T09:24:31.955Z,80.51
2022-10-15T09:27:13.184Z,80.62
2022-10-15T09:30:04.756Z,80.41
2022-10-15T09:33:21.265Z,79.97
2022-10-15T09:36:25.400Z,80.30
2022-10-15T09:39:27.890Z,79.92
2022-10-15T09:42:26.716Z,80.13
2022-10-15T09:45:06.550Z,79.40
2022-10-15T09:47:42.302Z,79.42
2022-10-15T09:50:14.748Z,78.42
2022-10-15T09:53:09.675Z,77.94
2022-10-15T09:56:04.754Z,77.95
2022-10-15T09:58:59.647Z,77.58
2022-10-15T10:01:33.214Z,77.63
2022-10-15T10:04:34.693Z,77.63
2022-10-15T10:07:35.318Z,76.97
2022-10-15T10:10:30.845Z,77.36
2022-10-15T10:13:02.529Z,77.46
2022-10-15T10:15:37.486Z,77.82
2022-10-15T10:18:19.992Z,77.42
2022-10-15T10:21:01.695Z,77.02
2022-10-15T10:23:36.479Z,77.25
2022-10-15T10:26:12.119Z,77.49
2022-10-15T10:28:56.893Z,77.83
2022-10-15T10:31:42.605Z,78.00
2022-10-15T10:34:20.456Z,77.70
2022-10-15T10:36:55.420Z,77.30
2022-10-15T10:39:34.326Z,77.94
2022-10-15T10:42:18.547Z,78.06
2022-10-15T10:44:52.519Z,77.56
2022-10-15T10:47:26.446Z,78.51
2022-10-15T10:50:27.295Z,78.84
2022-10-15T10:53:17.032Z,78.73
2022-10-15T10:55:53.723Z,78.85
2022-10-15T10:58:34.557Z,78.88
2022-10-15T11:01:06.423Z,78.95
2022-10-15T11:03:43.329Z,78.55
2022-10-15T11:06:35.917Z,79.23
2022-10-15T11:09:18.427Z,78.43
2022-10-15T11:12:12.016Z,78.10
2022-10-15T11:14:56.053Z,77.91
2022-10-15T11:17:35.198Z,77.83
2022-10-15T11:20:44.237Z,78.21
2022-10-15T11:23:57.757Z,78.16
2022-10-15T11:26:58.828Z,77.61
2022-10-15T11:29:47.474Z,77.86
2022-10-15T11:32:28.450Z,76.79
2022-10-15T11:35:08.471Z,77.23
2022-10-15T11:37:48.799Z,77.23
2022-10-15T11:40:49.074Z,77.45
2022-10-15T11:43:35.993Z,77.03
2022-10-15T11:46:44.252Z,76.72
2022-10-15T11:50:06.050Z,76.76
2022-10-15T11:52:58.851Z,76.94
2022-10-15T11:55:48.171Z,76.75
2022-10-15T11:58:51.766Z,77.47
2022-10-15T12:01:50.065Z,76.27
2022-10-15T12:04:51.879Z,75.78
2022-10-15T12:07:45.061Z,75.01
2022-10-15T12:10:52.972Z,74.12
2022-10-15T12:13:51.294Z,71.78
2022-10-15T12:16:51.124Z,72.41
2022-10-15T12:19:51.686Z,73.21
2022-10-15T12:22:51.969Z,73.84
2022-10-15T12:25:36.263Z,73.53
2022-10-15T12:28:18.952Z,73.19
2022-10-15T12:31:02.856Z,73.33
2022-10-15T12:33:39.626Z,73.23
2022-10-15T12:36:28.036Z,72.70
2022-10-15T12:39:47.555Z,73.28
2022-10-15T12:42:29.954Z,74.11
2022-10-15T12:45:06.353Z,73.95
2022-10-15T12:47:56.607Z,73.58
2022-10-15T12:50:31.217Z,73.77
2022-10-15T12:53:25.852Z,73.63
2022-10-15T12:56:14.159Z,73.91
2022-10-15T12:58:51.531Z,74.18
2022-10-15T13:01:23.445Z,74.06
2022-10-15T13:03:57.489Z,74.13
2022-10-15T13:06:36.663Z,74.32
2022-10-15T13:09:11.145Z,74.33
2022-10-15T13:11:44.834Z,74.33
2022-10-15T13:14:40.146Z,75.00
2022-10-15T13:17:22.096Z,75.10
2022-10-15T13:20:07.889Z,75.12
2022-10-15T13:22:39.719Z,74.91
2022-10-15T13:25:18.307Z,74.98
2022-10-15T13:27:50.003Z,74.64
2022-10-15T13:32:59.885Z,74.22
2022-10-15T13:35:37.460Z,74.47
2022-10-15T13:38:29.420Z,75.02
2022-10-15T13:41:04.637Z,75.01
2022-10-15T13:43:36.419Z,74.64
2022-10-15T13:46:18.830Z,74.24
2022-10-15T13:49:13.169Z,74.15
2022-10-15T13:51:49.552Z,74.21
2022-10-15T13:54:28.866Z,73.56
2022-10-15T13:57:02.614Z,73.73
2022-10-15T13:59:37.359Z,73.64
2022-10-15T14:02:12.030Z,73.54
2022-10-15T14:04:44.939Z,73.60
2022-10-15T14:07:27.702Z,74.00
2022-10-15T14:10:00.017Z,73.43
2022-10-15T14:12:31.888Z,73.30
2022-10-15T14:15:41.007Z,73.43
2022-10-15T14:18:15.255Z,73.78
2022-10-15T14:20:48.122Z,72.87
2022-10-15T14:23:24.073Z,73.18
2022-10-15T14:26:02.796Z,73.54
2022-10-15T14:28:35.105Z,74.09
2022-10-15T14:31:08.198Z,74.28
2022-10-15T14:33:43.207Z,75.02
2022-10-15T14:36:20.872Z,75.51
2022-10-15T14:38:54.089Z,75.36
2022-10-15T14:41:34.038Z,75.76
2022-10-15T14:44:17.994Z,76.15
2022-10-15T14:46:53.111Z,76.13
2022-10-15T14:49:33.378Z,76.23
2022-10-15T14:52:10.585Z,76.35
2022-10-15T14:54:59.568Z,76.21
2022-10-15T14:57:37.736Z,76.73
2022-10-15T15:00:32.042Z,76.93
2022-10-15T15:03:06.406Z,77.14
2022-10-15T15:05:51.146Z,77.32
2022-10-15T15:08:27.546Z,77.60
2022-10-15T15:11:02.260Z,77.44
2022-10-15T15:13:45.767Z,77.37
2022-10-15T15:16:18.490Z,77.38
2022-10-15T15:18:50.174Z,77.53
2022-10-15T15:21:23.689Z,77.38
2022-10-15T15:23:55.405Z,77.66
2022-10-15T15:26:29.471Z,77.70
2022-10-15T15:29:01.530Z,77.81
2022-10-15T15:31:33.855Z,78.00
2022-10-15T15:34:05.655Z,78.07
2022-10-15T15:36:37.649Z,77.88
2022-10-15T15:39:09.584Z,77.72
2022-10-15T15:41:41.453Z,77.68
2022-10-15T15:44:14.462Z,77.84
2022-10-15T15:46:50.302Z,77.92
2022-10-15T15:49:25.014Z,78.08
2022-10-15T15:51:57.161Z,78.33
2022-10-15T15:54:29.255Z,78.63
2022-10-15T15:57:01.234Z,78.81
2022-10-15T15:59:35.950Z,78.75
2022-10-15T16:02:12.022Z,78.85
2022-10-15T16:04:45.589Z,79.00
2022-10-15T16:07:19.552Z,79.18
2022-10-15T16:09:51.536Z,79.39
2022-10-15T16:12:26.201Z,79.37
2022-10-15T16:17:33.381Z,80.24
2022-10-15T16:20:06.437Z,81.38
2022-10-15T16:22:38.474Z,81.89
2022-10-15T16:25:10.689Z,81.16
2022-10-15T16:27:45.618Z,81.62
2022-10-15T16:30:19.564Z,81.64
2022-10-15T16:32:51.280Z,81.75
2022-10-15T16:35:23.112Z,82.03
2022-10-15T16:37:57.751Z,82.18
2022-10-15T16:40:29.630Z,81.99
2022-10-15T16:43:01.431Z,82.49
2022-10-15T16:45:33.492Z,82.35
2022-10-15T16:48:06.429Z,82.42
2022-10-15T16:50:38.142Z,82.21
2022-10-15T16:53:11.882Z,82.60
2022-10-15T16:55:43.531Z,82.53
2022-10-15T16:58:15.201Z,82.41
2022-10-15T17:00:47.031Z,82.76
2022-10-15T17:03:18.791Z,82.79
2022-10-15T17:05:50.480Z,82.88
2022-10-15T17:08:22.677Z,82.75
2022-10-15T17:10:55.569Z,82.80
2022-10-15T17:13:27.577Z,83.03
2022-10-15T17:16:11.574Z,83.57
2022-10-15T17:18:44.927Z,83.46
2022-10-15T17:21:19.893Z,83.26
2022-10-15T17:23:54.804Z,83.29
2022-10-15T17:26:29.151Z,83.28
2022-10-15T17:29:01.014Z,83.42
2022-10-15T17:31:35.629Z,83.43
2022-10-15T17:34:07.998Z,83.38
2022-10-15T17:36:45.274Z,83.48
2022-10-15T17:39:19.785Z,83.31
2022-10-15T17:41:54.662Z,83.20
2022-10-15T17:44:26.339Z,83.66
2022-10-15T17:46:58.395Z,83.47
2022-10-15T17:49:32.698Z,83.88
2022-10-15T17:52:04.324Z,84.14
2022-10-15T17:54:38.784Z,84.11
2022-10-15T17:57:14.442Z,83.86
2022-10-15T17:59:48.824Z,83.89
2022-10-15T18:02:22.856Z,83.72
2022-10-15T18:04:56.727Z,84.12
2022-10-15T18:07:28.644Z,84.10
2022-10-15T18:10:01.723Z,84.17
2022-10-15T18:12:33.428Z,83.90
2022-10-15T18:15:05.892Z,83.91
2022-10-15T18:17:37.603Z,84.14
2022-10-15T18:20:09.687Z,84.46
2022-10-15T18:22:41.398Z,84.44
2022-10-15T18:25:13.371Z,84.83
2022-10-15T18:27:45.411Z,84.89
2022-10-15T18:30:17.422Z,84.62
2022-10-15T18:32:50.447Z,84.82
2022-10-15T18:35:23.888Z,85.28
2022-10-15T18:37:55.508Z,85.50
2022-10-15T18:40:27.226Z,85.56
2022-10-15T18:42:58.893Z,85.52
2022-10-15T18:45:38.632Z,85.40
2022-10-15T18:48:13.374Z,85.41
2022-10-15T18:53:17.704Z,85.32
2022-10-15T18:55:49.486Z,85.33
2022-10-15T18:58:21.143Z,85.42
2022-10-15T19:00:52.825Z,85.65
2022-10-15T19:03:26.032Z,85.66
2022-10-15T19:05:57.866Z,85.59
2022-10-15T19:08:32.703Z,85.66
2022-10-15T19:11:06.196Z,85.53
2022-10-15T19:13:37.884Z,85.56
2022-10-15T19:16:09.736Z,85.54
2022-10-15T19:18:41.375Z,85.69
2022-10-15T19:21:13.208Z,85.87
2022-10-15T19:23:45.070Z,86.03
2022-10-15T19:26:18.995Z,85.98
2022-10-15T19:28:51.934Z,85.69
2022-10-15T19:31:26.950Z,85.56
2022-10-15T19:33:59.806Z,85.59
2022-10-15T19:36:40.750Z,85.57
2022-10-15T19:39:22.363Z,85.05
2022-10-15T19:41:54.151Z,85.22
2022-10-15T19:44:30.701Z,85.22
2022-10-15T19:47:02.331Z,85.48
2022-10-15T19:49:34.377Z,85.85
2022-10-15T19:52:06.115Z,85.94
2022-10-15T19:54:37.783Z,85.72
2022-10-15T19:57:09.475Z,85.79
2022-10-15T19:59:43.395Z,85.57
2022-10-15T20:02:15.244Z,85.36
2022-10-15T20:04:46.915Z,85.15
2022-10-15T20:07:19.270Z,85.27
2022-10-15T20:09:51.014Z,85.40
2022-10-15T20:12:22.745Z,85.58
2022-10-15T20:14:54.377Z,85.76
2022-10-15T20:17:26.652Z,85.64
2022-10-15T20:19:58.920Z,85.31
2022-10-15T20:22:30.818Z,85.24
2022-10-15T20:25:02.625Z,85.35
2022-10-15T20:27:38.207Z,85.18
2022-10-15T20:30:11.260Z,85.70
2022-10-15T20:32:43.888Z,85.66
2022-10-15T20:35:16.291Z,85.73
2022-10-15T20:37:48.483Z,85.69
2022-10-15T20:40:20.139Z,86.08
2022-10-15T20:42:51.945Z,85.94
2022-10-15T20:45:27.093Z,85.89
2022-10-15T20:47:59.023Z,85.53
2022-10-15T20:50:34.531Z,86.44
2022-10-15T20:53:06.441Z,86.27
2022-10-15T20:55:38.588Z,86.42
2022-10-15T20:58:10.660Z,86.41
2022-10-15T21:00:42.440Z,86.61
2022-10-15T21:03:14.273Z,86.86
2022-10-15T21:05:45.943Z,86.75
2022-10-15T21:08:19.801Z,86.78
2022-10-15T21:10:51.614Z,86.78
2022-10-15T21:13:24.425Z,86.61
2022-10-15T21:16:04.357Z,86.64
2022-10-15T21:18:37.137Z,86.58
2022-10-15T21:21:14.203Z,86.58
2022-10-15T21:23:45.945Z,86.45
2022-10-15T21:26:18.907Z,86.27
2022-10-15T21:28:55.535Z,86.16
2022-10-15T21:31:28.134Z,86.26
2022-10-15T21:33:59.859Z,86.05
2022-10-15T21:36:31.612Z,86.25
2022-10-15T21:39:08.773Z,86.30
2022-10-15T21:41:40.598Z,86.29
2022-10-15T21:44:15.045Z,86.27
2022-10-15T21:46:46.741Z,86.10
2022-10-15T21:49:20.437Z,86.09
2022-10-15T21:51:52.183Z,85.91
2022-10-15T21:54:25.051Z,85.74
2022-10-15T21:56:56.734Z,85.75
2022-10-15T21:59:28.602Z,85.44
2022-10-15T22:02:00.424Z,85.45
2022-10-15T22:04:35.881Z,85.28
2022-10-15T22:07:09.263Z,85.41
2022-10-15T22:09:40.992Z,85.83
2022-10-15T22:12:15.657Z,85.59
2022-10-15T22:14:49.668Z,85.58
2022-10-15T22:17:21.299Z,85.59
2022-10-15T22:19:53.186Z,85.74
2022-10-15T22:22:25.434Z,85.63
2022-10-15T22:25:01.949Z,85.53
2022-10-15T22:27:33.713Z,85.47
2022-10-15T22:30:06.006Z,85.54
2022-10-15T22:32:37.675Z,85.39
2022-10-15T22:35:09.695Z,85.56
2022-10-15T22:37:46.341Z,85.55
2022-10-15T22:40:21.183Z,85.33
2022-10-15T22:42:52.929Z,85.34
2022-10-15T22:45:24.681Z,85.24
2022-10-15T22:47:56.313Z,85.05
2022-10-15T22:50:28.417Z,85.12
2022-10-15T22:53:00.202Z,84.94
2022-10-15T22:55:31.975Z,85.21
2022-10-15T22:58:03.666Z,85.30
2022-10-15T23:00:35.393Z,85.07
2022-10-15T23:03:07.190Z,84.95
2022-10-15T23:05:38.972Z,85.20
2022-10-15T23:10:43.502Z,84.96
2022-10-15T23:13:15.887Z,84.84
2022-10-15T23:15:47.591Z,85.17
2022-10-15T23:18:19.248Z,85.34
2022-10-15T23:20:51.149Z,85.38
2022-10-15T23:23:22.879Z,85.34
2022-10-15T23:25:54.843Z,85.39
2022-10-15T23:28:26.794Z,84.99
2022-10-15T23:30:58.638Z,85.09
2022-10-15T23:33:30.551Z,85.13
2022-10-15T23:36:04.863Z,85.19
2022-10-15T23:38:36.481Z,84.87
2022-10-15T23:41:10.333Z,85.01
2022-10-15T23:43:42.266Z,85.01
2022-10-15T23:46:18.152Z,85.11
2022-10-15T23:48:50.452Z,84.79
2022-10-15T23:51:25.593Z,84.68
2022-10-15T23:53:59.090Z,84.53
2022-10-15T23:56:31.330Z,84.42
2022-10-15T23:59:03.187Z,84.44
